sensor_id;sensor_type;location;lat;lon;timestamp;P1;durP1;ratioP1;P2;durP2;ratioP2
572;SDS011;271;51.114;13.780;2023-07-09T00:01:46;18.40;;;6.63;;
572;SDS011;271;51.114;13.780;2023-07-09T00:04:34;21.73;;;6.53;;
572;SDS011;271;51.114;13.780;2023-07-09T00:07:23;19.67;;;6.97;;
572;SDS011;271;51.114;13.780;2023-07-09T00:10:14;18.83;;;7.50;;
572;SDS011;271;51.114;13.780;2023-07-09T00:13:05;18.90;;;7.30;;
572;SDS011;271;51.114;13.780;2023-07-09T00:15:53;17.90;;;6.90;;
572;SDS011;271;51.114;13.780;2023-07-09T00:18:44;18.50;;;7.20;;
572;SDS011;271;51.114;13.780;2023-07-09T00:21:34;17.60;;;6.23;;
572;SDS011;271;51.114;13.780;2023-07-09T00:24:22;19.70;;;7.40;;
572;SDS011;271;51.114;13.780;2023-07-09T00:27:10;19.57;;;6.97;;
572;SDS011;271;51.114;13.780;2023-07-09T00:29:59;18.50;;;7.63;;
572;SDS011;271;51.114;13.780;2023-07-09T00:32:49;19.43;;;7.30;;
572;SDS011;271;51.114;13.780;2023-07-09T00:35:37;19.53;;;7.30;;
572;SDS011;271;51.114;13.780;2023-07-09T00:38:26;18.83;;;6.47;;
572;SDS011;271;51.114;13.780;2023-07-09T00:41:14;19.40;;;6.80;;
572;SDS011;271;51.114;13.780;2023-07-09T00:44:18;19.80;;;6.67;;
572;SDS011;271;51.114;13.780;2023-07-09T00:47:21;18.73;;;6.97;;
572;SDS011;271;51.114;13.780;2023-07-09T00:50:14;19.20;;;7.23;;
572;SDS011;271;51.114;13.780;2023-07-09T00:53:10;19.20;;;7.03;;
572;SDS011;271;51.114;13.780;2023-07-09T00:56:04;19.80;;;7.50;;
572;SDS011;271;51.114;13.780;2023-07-09T00:58:55;19.50;;;7.47;;
572;SDS011;271;51.114;13.780;2023-07-09T01:01:46;20.70;;;7.83;;
572;SDS011;271;51.114;13.780;2023-07-09T01:04:37;19.03;;;7.17;;
572;SDS011;271;51.114;13.780;2023-07-09T01:07:26;21.53;;;8.50;;
572;SDS011;271;51.114;13.780;2023-07-09T01:10:14;19.30;;;7.47;;
572;SDS011;271;51.114;13.780;2023-07-09T01:13:03;19.10;;;7.23;;
572;SDS011;271;51.114;13.780;2023-07-09T01:15:50;20.40;;;7.70;;
572;SDS011;271;51.114;13.780;2023-07-09T01:18:38;19.10;;;7.33;;
572;SDS011;271;51.114;13.780;2023-07-09T01:21:27;19.33;;;7.40;;
572;SDS011;271;51.114;13.780;2023-07-09T01:24:45;19.67;;;7.03;;
572;SDS011;271;51.114;13.780;2023-07-09T01:27:36;20.13;;;8.23;;
572;SDS011;271;51.114;13.780;2023-07-09T01:30:27;19.93;;;7.73;;
572;SDS011;271;51.114;13.780;2023-07-09T01:33:19;19.97;;;7.23;;
572;SDS011;271;51.114;13.780;2023-07-09T01:36:07;20.43;;;7.90;;
572;SDS011;271;51.114;13.780;2023-07-09T01:38:57;21.33;;;7.87;;
572;SDS011;271;51.114;13.780;2023-07-09T01:41:45;20.97;;;7.60;;
572;SDS011;271;51.114;13.780;2023-07-09T01:44:33;19.73;;;6.73;;
572;SDS011;271;51.114;13.780;2023-07-09T01:47:21;21.57;;;7.67;;
572;SDS011;271;51.114;13.780;2023-07-09T01:50:10;19.83;;;7.00;;
572;SDS011;271;51.114;13.780;2023-07-09T01:52:58;19.87;;;6.93;;
572;SDS011;271;51.114;13.780;2023-07-09T01:55:48;19.10;;;7.07;;
572;SDS011;271;51.114;13.780;2023-07-09T01:58:36;19.10;;;6.90;;
572;SDS011;271;51.114;13.780;2023-07-09T02:01:27;21.20;;;7.43;;
572;SDS011;271;51.114;13.780;2023-07-09T02:04:15;19.17;;;7.30;;
572;SDS011;271;51.114;13.780;2023-07-09T02:07:05;20.10;;;7.30;;
572;SDS011;271;51.114;13.780;2023-07-09T02:09:53;19.90;;;7.30;;
572;SDS011;271;51.114;13.780;2023-07-09T02:12:42;20.03;;;7.17;;
572;SDS011;271;51.114;13.780;2023-07-09T02:15:30;20.67;;;8.10;;
572;SDS011;271;51.114;13.780;2023-07-09T02:18:18;20.50;;;8.13;;
572;SDS011;271;51.114;13.780;2023-07-09T02:21:06;18.70;;;6.97;;
572;SDS011;271;51.114;13.780;2023-07-09T02:23:53;20.87;;;7.60;;
572;SDS011;271;51.114;13.780;2023-07-09T02:26:41;19.83;;;7.70;;
572;SDS011;271;51.114;13.780;2023-07-09T02:29:30;20.33;;;7.63;;
572;SDS011;271;51.114;13.780;2023-07-09T02:32:19;19.60;;;7.43;;
572;SDS011;271;51.114;13.780;2023-07-09T02:35:08;20.00;;;8.10;;
572;SDS011;271;51.114;13.780;2023-07-09T02:37:55;19.30;;;7.17;;
572;SDS011;271;51.114;13.780;2023-07-09T02:40:43;20.00;;;7.97;;
572;SDS011;271;51.114;13.780;2023-07-09T02:43:31;19.53;;;7.67;;
572;SDS011;271;51.114;13.780;2023-07-09T02:46:20;20.50;;;7.90;;
572;SDS011;271;51.114;13.780;2023-07-09T02:49:09;21.63;;;8.33;;
572;SDS011;271;51.114;13.780;2023-07-09T02:51:58;19.17;;;6.80;;
572;SDS011;271;51.114;13.780;2023-07-09T02:54:45;23.30;;;8.17;;
572;SDS011;271;51.114;13.780;2023-07-09T02:57:34;20.07;;;8.23;;
572;SDS011;271;51.114;13.780;2023-07-09T03:00:21;20.30;;;7.60;;
572;SDS011;271;51.114;13.780;2023-07-09T03:03:10;22.33;;;7.33;;
572;SDS011;271;51.114;13.780;2023-07-09T03:05:58;19.60;;;7.70;;
572;SDS011;271;51.114;13.780;2023-07-09T03:08:46;19.83;;;8.20;;
572;SDS011;271;51.114;13.780;2023-07-09T03:11:34;21.23;;;7.80;;
572;SDS011;271;51.114;13.780;2023-07-09T03:14:22;19.30;;;7.10;;
572;SDS011;271;51.114;13.780;2023-07-09T03:17:10;21.27;;;8.23;;
572;SDS011;271;51.114;13.780;2023-07-09T03:19:59;19.10;;;7.00;;
572;SDS011;271;51.114;13.780;2023-07-09T03:22:47;19.90;;;7.27;;
572;SDS011;271;51.114;13.780;2023-07-09T03:25:39;21.90;;;8.20;;
572;SDS011;271;51.114;13.780;2023-07-09T03:28:29;20.97;;;8.40;;
572;SDS011;271;51.114;13.780;2023-07-09T03:31:18;19.93;;;7.83;;
572;SDS011;271;51.114;13.780;2023-07-09T03:34:06;19.97;;;7.97;;
572;SDS011;271;51.114;13.780;2023-07-09T03:36:55;21.63;;;8.70;;
572;SDS011;271;51.114;13.780;2023-07-09T03:39:43;20.23;;;7.33;;
572;SDS011;271;51.114;13.780;2023-07-09T03:42:33;19.43;;;6.60;;
572;SDS011;271;51.114;13.780;2023-07-09T03:45:20;20.77;;;8.17;;
572;SDS011;271;51.114;13.780;2023-07-09T03:48:08;20.03;;;7.63;;
572;SDS011;271;51.114;13.780;2023-07-09T03:50:56;19.37;;;7.70;;
572;SDS011;271;51.114;13.780;2023-07-09T03:53:45;19.80;;;8.37;;
572;SDS011;271;51.114;13.780;2023-07-09T03:56:33;20.30;;;7.53;;
572;SDS011;271;51.114;13.780;2023-07-09T03:59:20;19.17;;;7.80;;
572;SDS011;271;51.114;13.780;2023-07-09T04:02:08;19.40;;;7.53;;
572;SDS011;271;51.114;13.780;2023-07-09T04:04:56;21.10;;;8.10;;
572;SDS011;271;51.114;13.780;2023-07-09T04:07:44;20.37;;;7.60;;
572;SDS011;271;51.114;13.780;2023-07-09T04:10:33;19.27;;;6.87;;
572;SDS011;271;51.114;13.780;2023-07-09T04:13:21;20.70;;;8.60;;
572;SDS011;271;51.114;13.780;2023-07-09T04:16:09;23.33;;;7.63;;
572;SDS011;271;51.114;13.780;2023-07-09T04:18:57;19.67;;;7.40;;
572;SDS011;271;51.114;13.780;2023-07-09T04:21:45;19.80;;;7.50;;
572;SDS011;271;51.114;13.780;2023-07-09T04:24:33;19.10;;;7.40;;
572;SDS011;271;51.114;13.780;2023-07-09T04:27:22;20.20;;;7.07;;
572;SDS011;271;51.114;13.780;2023-07-09T04:30:14;18.60;;;6.97;;
572;SDS011;271;51.114;13.780;2023-07-09T04:33:02;20.93;;;6.67;;
572;SDS011;271;51.114;13.780;2023-07-09T04:35:49;20.93;;;8.00;;
572;SDS011;271;51.114;13.780;2023-07-09T04:38:37;20.40;;;6.30;;
572;SDS011;271;51.114;13.780;2023-07-09T04:41:25;19.13;;;6.47;;
572;SDS011;271;51.114;13.780;2023-07-09T04:44:14;19.07;;;7.07;;
572;SDS011;271;51.114;13.780;2023-07-09T04:47:01;18.10;;;6.53;;
572;SDS011;271;51.114;13.780;2023-07-09T04:49:49;19.33;;;7.00;;
572;SDS011;271;51.114;13.780;2023-07-09T04:52:37;20.83;;;7.20;;
572;SDS011;271;51.114;13.780;2023-07-09T04:55:25;19.80;;;6.23;;
572;SDS011;271;51.114;13.780;2023-07-09T04:58:13;20.00;;;6.53;;
572;SDS011;271;51.114;13.780;2023-07-09T05:01:02;20.10;;;7.60;;
572;SDS011;271;51.114;13.780;2023-07-09T05:03:50;19.13;;;6.70;;
572;SDS011;271;51.114;13.780;2023-07-09T05:06:38;19.20;;;7.30;;
572;SDS011;271;51.114;13.780;2023-07-09T05:09:26;19.50;;;6.80;;
572;SDS011;271;51.114;13.780;2023-07-09T05:12:14;18.60;;;6.77;;
572;SDS011;271;51.114;13.780;2023-07-09T05:15:02;18.10;;;6.60;;
572;SDS011;271;51.114;13.780;2023-07-09T05:17:51;18.60;;;7.00;;
572;SDS011;271;51.114;13.780;2023-07-09T05:20:39;19.37;;;6.40;;
572;SDS011;271;51.114;13.780;2023-07-09T05:23:27;17.33;;;5.50;;
572;SDS011;271;51.114;13.780;2023-07-09T05:26:15;17.10;;;5.70;;
572;SDS011;271;51.114;13.780;2023-07-09T05:29:03;17.17;;;6.03;;
572;SDS011;271;51.114;13.780;2023-07-09T05:31:51;17.10;;;5.87;;
572;SDS011;271;51.114;13.780;2023-07-09T05:34:40;18.43;;;6.43;;
572;SDS011;271;51.114;13.780;2023-07-09T05:37:28;17.90;;;6.70;;
572;SDS011;271;51.114;13.780;2023-07-09T05:40:16;18.10;;;6.60;;
572;SDS011;271;51.114;13.780;2023-07-09T05:43:04;18.30;;;6.27;;
572;SDS011;271;51.114;13.780;2023-07-09T05:45:52;16.87;;;6.00;;
572;SDS011;271;51.114;13.780;2023-07-09T05:48:39;17.90;;;6.30;;
572;SDS011;271;51.114;13.780;2023-07-09T05:51:28;17.10;;;6.20;;
572;SDS011;271;51.114;13.780;2023-07-09T05:54:16;17.60;;;6.57;;
572;SDS011;271;51.114;13.780;2023-07-09T05:57:04;16.87;;;5.80;;
572;SDS011;271;51.114;13.780;2023-07-09T05:59:53;17.60;;;5.77;;
572;SDS011;271;51.114;13.780;2023-07-09T06:02:41;16.77;;;5.43;;
572;SDS011;271;51.114;13.780;2023-07-09T06:05:29;16.67;;;6.20;;
572;SDS011;271;51.114;13.780;2023-07-09T06:08:18;16.60;;;5.60;;
572;SDS011;271;51.114;13.780;2023-07-09T06:11:05;16.57;;;5.77;;
572;SDS011;271;51.114;13.780;2023-07-09T06:13:53;17.20;;;6.17;;
572;SDS011;271;51.114;13.780;2023-07-09T06:16:41;16.30;;;5.50;;
572;SDS011;271;51.114;13.780;2023-07-09T06:19:29;17.23;;;5.67;;
572;SDS011;271;51.114;13.780;2023-07-09T06:22:17;17.10;;;5.43;;
572;SDS011;271;51.114;13.780;2023-07-09T06:25:07;16.70;;;6.23;;
572;SDS011;271;51.114;13.780;2023-07-09T06:27:55;16.47;;;6.77;;
572;SDS011;271;51.114;13.780;2023-07-09T06:30:44;16.33;;;6.20;;
572;SDS011;271;51.114;13.780;2023-07-09T06:33:32;16.30;;;5.67;;
572;SDS011;271;51.114;13.780;2023-07-09T06:36:20;17.33;;;6.17;;
572;SDS011;271;51.114;13.780;2023-07-09T06:39:07;17.37;;;6.47;;
572;SDS011;271;51.114;13.780;2023-07-09T06:41:56;17.33;;;6.63;;
572;SDS011;271;51.114;13.780;2023-07-09T06:44:44;17.07;;;6.13;;
572;SDS011;271;51.114;13.780;2023-07-09T06:47:32;18.63;;;6.50;;
572;SDS011;271;51.114;13.780;2023-07-09T06:50:20;16.00;;;5.87;;
572;SDS011;271;51.114;13.780;2023-07-09T06:53:07;16.10;;;5.20;;
572;SDS011;271;51.114;13.780;2023-07-09T06:55:55;16.60;;;5.90;;
572;SDS011;271;51.114;13.780;2023-07-09T06:58:46;15.40;;;5.50;;
572;SDS011;271;51.114;13.780;2023-07-09T07:01:34;16.70;;;5.30;;
572;SDS011;271;51.114;13.780;2023-07-09T07:04:21;18.33;;;6.73;;
572;SDS011;271;51.114;13.780;2023-07-09T07:07:09;15.30;;;5.33;;
572;SDS011;271;51.114;13.780;2023-07-09T07:09:57;15.30;;;5.30;;
572;SDS011;271;51.114;13.780;2023-07-09T07:12:46;15.47;;;5.20;;
572;SDS011;271;51.114;13.780;2023-07-09T07:15:37;15.43;;;5.37;;
572;SDS011;271;51.114;13.780;2023-07-09T07:18:25;15.87;;;5.60;;
572;SDS011;271;51.114;13.780;2023-07-09T07:21:13;15.67;;;5.20;;
572;SDS011;271;51.114;13.780;2023-07-09T07:24:01;15.80;;;5.63;;
572;SDS011;271;51.114;13.780;2023-07-09T07:26:49;15.47;;;6.00;;
572;SDS011;271;51.114;13.780;2023-07-09T07:29:37;15.30;;;5.67;;
572;SDS011;271;51.114;13.780;2023-07-09T07:35:16;15.90;;;5.50;;
572;SDS011;271;51.114;13.780;2023-07-09T07:38:05;15.67;;;6.00;;
572;SDS011;271;51.114;13.780;2023-07-09T07:40:53;15.70;;;5.90;;
572;SDS011;271;51.114;13.780;2023-07-09T07:43:41;14.90;;;5.10;;
572;SDS011;271;51.114;13.780;2023-07-09T07:46:29;17.07;;;5.87;;
572;SDS011;271;51.114;13.780;2023-07-09T07:49:19;14.73;;;5.00;;
572;SDS011;271;51.114;13.780;2023-07-09T07:52:07;16.37;;;5.30;;
572;SDS011;271;51.114;13.780;2023-07-09T07:54:56;15.03;;;4.53;;
572;SDS011;271;51.114;13.780;2023-07-09T07:57:43;14.80;;;5.03;;
572;SDS011;271;51.114;13.780;2023-07-09T08:00:36;15.30;;;5.50;;
572;SDS011;271;51.114;13.780;2023-07-09T08:03:25;15.53;;;5.03;;
572;SDS011;271;51.114;13.780;2023-07-09T08:06:14;16.23;;;5.83;;
572;SDS011;271;51.114;13.780;2023-07-09T08:09:08;16.80;;;4.67;;
572;SDS011;271;51.114;13.780;2023-07-09T08:11:56;15.10;;;4.80;;
572;SDS011;271;51.114;13.780;2023-07-09T08:14:44;15.57;;;4.60;;
572;SDS011;271;51.114;13.780;2023-07-09T08:17:35;15.13;;;5.13;;
572;SDS011;271;51.114;13.780;2023-07-09T08:20:23;15.57;;;5.47;;
572;SDS011;271;51.114;13.780;2023-07-09T08:23:16;16.03;;;5.43;;
572;SDS011;271;51.114;13.780;2023-07-09T08:26:03;15.80;;;5.03;;
572;SDS011;271;51.114;13.780;2023-07-09T08:28:51;15.30;;;5.00;;
572;SDS011;271;51.114;13.780;2023-07-09T08:31:39;16.00;;;5.30;;
572;SDS011;271;51.114;13.780;2023-07-09T08:34:27;15.37;;;4.93;;
572;SDS011;271;51.114;13.780;2023-07-09T08:37:15;16.50;;;4.90;;
572;SDS011;271;51.114;13.780;2023-07-09T08:40:07;15.10;;;4.53;;
572;SDS011;271;51.114;13.780;2023-07-09T08:43:00;16.17;;;5.37;;
572;SDS011;271;51.114;13.780;2023-07-09T08:45:54;15.20;;;4.57;;
572;SDS011;271;51.114;13.780;2023-07-09T08:48:49;16.30;;;5.73;;
572;SDS011;271;51.114;13.780;2023-07-09T08:51:38;17.30;;;5.53;;
572;SDS011;271;51.114;13.780;2023-07-09T08:54:29;15.80;;;5.47;;
572;SDS011;271;51.114;13.780;2023-07-09T08:57:29;16.03;;;5.20;;
572;SDS011;271;51.114;13.780;2023-07-09T09:00:24;17.50;;;5.60;;
572;SDS011;271;51.114;13.780;2023-07-09T09:03:27;16.80;;;5.87;;
572;SDS011;271;51.114;13.780;2023-07-09T09:06:25;16.70;;;5.80;;
572;SDS011;271;51.114;13.780;2023-07-09T09:09:18;16.67;;;5.57;;
572;SDS011;271;51.114;13.780;2023-07-09T09:12:16;16.33;;;5.40;;
572;SDS011;271;51.114;13.780;2023-07-09T09:15:12;16.03;;;4.73;;
572;SDS011;271;51.114;13.780;2023-07-09T09:18:11;16.50;;;5.50;;
572;SDS011;271;51.114;13.780;2023-07-09T09:21:08;16.50;;;5.00;;
572;SDS011;271;51.114;13.780;2023-07-09T09:27:10;17.30;;;5.47;;
572;SDS011;271;51.114;13.780;2023-07-09T09:29:58;16.07;;;5.57;;
572;SDS011;271;51.114;13.780;2023-07-09T09:32:47;16.87;;;5.60;;
572;SDS011;271;51.114;13.780;2023-07-09T09:35:41;17.50;;;5.60;;
572;SDS011;271;51.114;13.780;2023-07-09T09:38:31;17.30;;;5.20;;
572;SDS011;271;51.114;13.780;2023-07-09T09:41:24;15.70;;;4.90;;
572;SDS011;271;51.114;13.780;2023-07-09T09:44:17;15.93;;;5.13;;
572;SDS011;271;51.114;13.780;2023-07-09T09:47:07;16.40;;;4.90;;
572;SDS011;271;51.114;13.780;2023-07-09T09:49:58;16.80;;;5.50;;
572;SDS011;271;51.114;13.780;2023-07-09T09:52:46;17.20;;;5.60;;
572;SDS011;271;51.114;13.780;2023-07-09T09:55:35;16.87;;;5.03;;
572;SDS011;271;51.114;13.780;2023-07-09T09:58:27;15.37;;;4.47;;
572;SDS011;271;51.114;13.780;2023-07-09T10:01:17;16.90;;;5.10;;
572;SDS011;271;51.114;13.780;2023-07-09T10:04:05;15.10;;;3.90;;
572;SDS011;271;51.114;13.780;2023-07-09T10:06:55;16.10;;;4.70;;
572;SDS011;271;51.114;13.780;2023-07-09T10:09:46;15.80;;;4.50;;
572;SDS011;271;51.114;13.780;2023-07-09T10:12:39;16.90;;;5.00;;
572;SDS011;271;51.114;13.780;2023-07-09T10:15:42;16.67;;;4.60;;
572;SDS011;271;51.114;13.780;2023-07-09T10:18:47;16.80;;;4.80;;
572;SDS011;271;51.114;13.780;2023-07-09T10:21:42;15.47;;;4.27;;
572;SDS011;271;51.114;13.780;2023-07-09T10:24:40;15.43;;;4.53;;
572;SDS011;271;51.114;13.780;2023-07-09T10:27:35;17.20;;;4.77;;
572;SDS011;271;51.114;13.780;2023-07-09T10:30:35;15.83;;;4.53;;
572;SDS011;271;51.114;13.780;2023-07-09T10:33:32;15.70;;;4.17;;
572;SDS011;271;51.114;13.780;2023-07-09T10:36:36;15.80;;;4.57;;
572;SDS011;271;51.114;13.780;2023-07-09T10:39:34;15.20;;;4.17;;
572;SDS011;271;51.114;13.780;2023-07-09T10:42:30;16.10;;;5.10;;
572;SDS011;271;51.114;13.780;2023-07-09T10:45:28;17.10;;;5.00;;
572;SDS011;271;51.114;13.780;2023-07-09T10:48:20;16.30;;;4.97;;
572;SDS011;271;51.114;13.780;2023-07-09T10:51:21;15.73;;;4.80;;
572;SDS011;271;51.114;13.780;2023-07-09T10:54:13;16.60;;;5.00;;
572;SDS011;271;51.114;13.780;2023-07-09T10:57:44;15.53;;;4.50;;
572;SDS011;271;51.114;13.780;2023-07-09T11:00:53;16.33;;;5.20;;
572;SDS011;271;51.114;13.780;2023-07-09T11:03:42;15.80;;;4.87;;
572;SDS011;271;51.114;13.780;2023-07-09T11:06:37;16.47;;;4.63;;
572;SDS011;271;51.114;13.780;2023-07-09T11:09:42;16.30;;;5.47;;
572;SDS011;271;51.114;13.780;2023-07-09T11:12:41;15.50;;;4.70;;
572;SDS011;271;51.114;13.780;2023-07-09T11:15:34;16.40;;;4.90;;
572;SDS011;271;51.114;13.780;2023-07-09T11:18:24;15.57;;;4.40;;
572;SDS011;271;51.114;13.780;2023-07-09T11:21:14;15.93;;;4.80;;
572;SDS011;271;51.114;13.780;2023-07-09T11:24:04;17.30;;;5.10;;
572;SDS011;271;51.114;13.780;2023-07-09T11:26:52;15.80;;;4.97;;
572;SDS011;271;51.114;13.780;2023-07-09T11:29:46;15.60;;;4.60;;
572;SDS011;271;51.114;13.780;2023-07-09T11:32:44;16.10;;;4.83;;
572;SDS011;271;51.114;13.780;2023-07-09T11:35:45;15.97;;;4.70;;
572;SDS011;271;51.114;13.780;2023-07-09T11:38:38;17.67;;;5.17;;
572;SDS011;271;51.114;13.780;2023-07-09T11:41:33;15.70;;;4.93;;
572;SDS011;271;51.114;13.780;2023-07-09T11:44:28;16.00;;;5.03;;
572;SDS011;271;51.114;13.780;2023-07-09T11:50:26;15.07;;;4.40;;
572;SDS011;271;51.114;13.780;2023-07-09T11:53:19;16.50;;;4.87;;
572;SDS011;271;51.114;13.780;2023-07-09T11:56:17;17.43;;;4.87;;
572;SDS011;271;51.114;13.780;2023-07-09T11:59:20;15.80;;;4.57;;
572;SDS011;271;51.114;13.780;2023-07-09T12:02:15;16.97;;;4.53;;
572;SDS011;271;51.114;13.780;2023-07-09T12:05:07;16.30;;;4.80;;
572;SDS011;271;51.114;13.780;2023-07-09T12:07:56;18.60;;;4.40;;
572;SDS011;271;51.114;13.780;2023-07-09T12:10:45;15.80;;;3.97;;
572;SDS011;271;51.114;13.780;2023-07-09T12:13:36;15.10;;;3.60;;
572;SDS011;271;51.114;13.780;2023-07-09T12:16:24;16.80;;;3.80;;
572;SDS011;271;51.114;13.780;2023-07-09T12:19:16;16.17;;;4.10;;
572;SDS011;271;51.114;13.780;2023-07-09T12:22:09;16.57;;;4.30;;
572;SDS011;271;51.114;13.780;2023-07-09T12:25:24;16.87;;;3.77;;
572;SDS011;271;51.114;13.780;2023-07-09T12:28:14;15.73;;;4.00;;
572;SDS011;271;51.114;13.780;2023-07-09T12:31:02;15.80;;;3.67;;
572;SDS011;271;51.114;13.780;2023-07-09T12:33:52;16.37;;;4.10;;
572;SDS011;271;51.114;13.780;2023-07-09T12:36:42;16.47;;;3.83;;
572;SDS011;271;51.114;13.780;2023-07-09T12:39:34;16.00;;;4.67;;
572;SDS011;271;51.114;13.780;2023-07-09T12:42:27;16.77;;;4.33;;
572;SDS011;271;51.114;13.780;2023-07-09T12:45:39;17.23;;;3.93;;
572;SDS011;271;51.114;13.780;2023-07-09T12:48:28;16.20;;;4.47;;
572;SDS011;271;51.114;13.780;2023-07-09T12:51:18;16.27;;;4.47;;
572;SDS011;271;51.114;13.780;2023-07-09T12:54:13;15.93;;;3.77;;
572;SDS011;271;51.114;13.780;2023-07-09T12:57:08;16.13;;;4.20;;
572;SDS011;271;51.114;13.780;2023-07-09T13:00:17;16.83;;;4.53;;
572;SDS011;271;51.114;13.780;2023-07-09T13:03:12;16.33;;;4.30;;
572;SDS011;271;51.114;13.780;2023-07-09T13:06:02;16.67;;;4.30;;
572;SDS011;271;51.114;13.780;2023-07-09T13:08:54;19.23;;;4.57;;
572;SDS011;271;51.114;13.780;2023-07-09T13:12:05;15.60;;;4.07;;
572;SDS011;271;51.114;13.780;2023-07-09T13:14:58;16.90;;;4.43;;
572;SDS011;271;51.114;13.780;2023-07-09T13:17:46;16.40;;;4.07;;
572;SDS011;271;51.114;13.780;2023-07-09T13:20:38;16.00;;;4.57;;
572;SDS011;271;51.114;13.780;2023-07-09T13:23:28;16.23;;;3.83;;
572;SDS011;271;51.114;13.780;2023-07-09T13:26:16;16.87;;;3.70;;
572;SDS011;271;51.114;13.780;2023-07-09T13:29:09;16.77;;;4.67;;
572;SDS011;271;51.114;13.780;2023-07-09T13:31:59;15.07;;;3.77;;
572;SDS011;271;51.114;13.780;2023-07-09T13:35:14;16.73;;;4.00;;
572;SDS011;271;51.114;13.780;2023-07-09T13:38:08;15.27;;;3.80;;
572;SDS011;271;51.114;13.780;2023-07-09T13:41:01;16.70;;;4.47;;
572;SDS011;271;51.114;13.780;2023-07-09T13:46:42;15.67;;;4.77;;
572;SDS011;271;51.114;13.780;2023-07-09T13:49:53;16.93;;;5.13;;
572;SDS011;271;51.114;13.780;2023-07-09T13:52:41;16.30;;;4.60;;
572;SDS011;271;51.114;13.780;2023-07-09T13:55:29;16.20;;;4.20;;
572;SDS011;271;51.114;13.780;2023-07-09T13:58:18;15.37;;;4.07;;
572;SDS011;271;51.114;13.780;2023-07-09T14:01:12;18.90;;;4.90;;
572;SDS011;271;51.114;13.780;2023-07-09T14:04:03;16.53;;;4.20;;
572;SDS011;271;51.114;13.780;2023-07-09T14:06:51;16.60;;;4.30;;
572;SDS011;271;51.114;13.780;2023-07-09T14:09:39;17.27;;;4.97;;
572;SDS011;271;51.114;13.780;2023-07-09T14:12:27;15.43;;;3.90;;
572;SDS011;271;51.114;13.780;2023-07-09T14:15:17;16.33;;;4.60;;
572;SDS011;271;51.114;13.780;2023-07-09T14:18:08;18.60;;;4.40;;
572;SDS011;271;51.114;13.780;2023-07-09T14:21:00;17.33;;;4.60;;
572;SDS011;271;51.114;13.780;2023-07-09T14:23:51;16.20;;;4.40;;
572;SDS011;271;51.114;13.780;2023-07-09T14:26:39;16.17;;;3.80;;
572;SDS011;271;51.114;13.780;2023-07-09T14:29:27;15.80;;;3.90;;
572;SDS011;271;51.114;13.780;2023-07-09T14:32:23;19.00;;;3.90;;
572;SDS011;271;51.114;13.780;2023-07-09T14:35:27;17.03;;;3.80;;
572;SDS011;271;51.114;13.780;2023-07-09T14:38:21;17.17;;;4.07;;
572;SDS011;271;51.114;13.780;2023-07-09T14:41:15;18.20;;;4.80;;
572;SDS011;271;51.114;13.780;2023-07-09T14:44:25;16.37;;;4.33;;
572;SDS011;271;51.114;13.780;2023-07-09T14:47:18;15.40;;;3.83;;
572;SDS011;271;51.114;13.780;2023-07-09T14:50:07;16.20;;;5.00;;
572;SDS011;271;51.114;13.780;2023-07-09T14:52:55;16.87;;;4.80;;
572;SDS011;271;51.114;13.780;2023-07-09T14:55:45;17.90;;;4.50;;
572;SDS011;271;51.114;13.780;2023-07-09T15:01:18;16.60;;;4.30;;
572;SDS011;271;51.114;13.780;2023-07-09T15:04:30;16.13;;;4.30;;
572;SDS011;271;51.114;13.780;2023-07-09T15:07:36;15.70;;;4.00;;
572;SDS011;271;51.114;13.780;2023-07-09T15:10:24;15.67;;;4.17;;
572;SDS011;271;51.114;13.780;2023-07-09T15:13:19;15.90;;;4.47;;
572;SDS011;271;51.114;13.780;2023-07-09T15:16:11;16.20;;;4.47;;
572;SDS011;271;51.114;13.780;2023-07-09T15:18:58;17.03;;;3.97;;
572;SDS011;271;51.114;13.780;2023-07-09T15:21:46;17.50;;;4.77;;
572;SDS011;271;51.114;13.780;2023-07-09T15:24:34;16.57;;;4.17;;
572;SDS011;271;51.114;13.780;2023-07-09T15:27:23;16.93;;;4.40;;
572;SDS011;271;51.114;13.780;2023-07-09T15:30:16;16.90;;;4.70;;
572;SDS011;271;51.114;13.780;2023-07-09T15:33:30;16.90;;;4.40;;
572;SDS011;271;51.114;13.780;2023-07-09T15:36:19;15.83;;;4.33;;
572;SDS011;271;51.114;13.780;2023-07-09T15:39:08;16.70;;;4.20;;
572;SDS011;271;51.114;13.780;2023-07-09T15:41:57;16.60;;;4.50;;
572;SDS011;271;51.114;13.780;2023-07-09T15:44:46;16.57;;;4.60;;
572;SDS011;271;51.114;13.780;2023-07-09T15:47:35;16.47;;;4.50;;
572;SDS011;271;51.114;13.780;2023-07-09T15:50:25;16.67;;;4.67;;
572;SDS011;271;51.114;13.780;2023-07-09T15:53:14;16.67;;;4.40;;
572;SDS011;271;51.114;13.780;2023-07-09T15:56:03;16.23;;;4.67;;
572;SDS011;271;51.114;13.780;2023-07-09T15:58:52;16.03;;;4.13;;
572;SDS011;271;51.114;13.780;2023-07-09T16:01:40;17.17;;;4.50;;
572;SDS011;271;51.114;13.780;2023-07-09T16:04:30;17.47;;;5.07;;
572;SDS011;271;51.114;13.780;2023-07-09T16:07:18;18.10;;;4.50;;
572;SDS011;271;51.114;13.780;2023-07-09T16:10:09;16.53;;;4.97;;
572;SDS011;271;51.114;13.780;2023-07-09T16:12:57;16.37;;;4.50;;
572;SDS011;271;51.114;13.780;2023-07-09T16:15:46;16.93;;;4.87;;
572;SDS011;271;51.114;13.780;2023-07-09T16:18:34;15.67;;;4.30;;
572;SDS011;271;51.114;13.780;2023-07-09T16:21:25;15.67;;;4.27;;
572;SDS011;271;51.114;13.780;2023-07-09T16:24:17;18.77;;;4.97;;
572;SDS011;271;51.114;13.780;2023-07-09T16:27:34;15.67;;;4.33;;
572;SDS011;271;51.114;13.780;2023-07-09T16:30:26;17.60;;;4.40;;
572;SDS011;271;51.114;13.780;2023-07-09T16:33:15;16.13;;;3.70;;
572;SDS011;271;51.114;13.780;2023-07-09T16:36:03;16.27;;;4.80;;
572;SDS011;271;51.114;13.780;2023-07-09T16:38:57;16.60;;;4.77;;
572;SDS011;271;51.114;13.780;2023-07-09T16:41:45;16.43;;;4.30;;
572;SDS011;271;51.114;13.780;2023-07-09T16:44:33;15.90;;;4.00;;
572;SDS011;271;51.114;13.780;2023-07-09T16:47:21;16.60;;;4.77;;
572;SDS011;271;51.114;13.780;2023-07-09T16:50:10;15.90;;;3.90;;
572;SDS011;271;51.114;13.780;2023-07-09T16:53:29;17.80;;;4.60;;
572;SDS011;271;51.114;13.780;2023-07-09T16:56:18;17.20;;;4.47;;
572;SDS011;271;51.114;13.780;2023-07-09T16:59:08;16.30;;;4.30;;
572;SDS011;271;51.114;13.780;2023-07-09T17:01:57;16.97;;;5.10;;
572;SDS011;271;51.114;13.780;2023-07-09T17:04:44;17.50;;;5.50;;
572;SDS011;271;51.114;13.780;2023-07-09T17:07:32;17.47;;;4.80;;
572;SDS011;271;51.114;13.780;2023-07-09T17:10:21;16.90;;;4.73;;
572;SDS011;271;51.114;13.780;2023-07-09T17:13:19;16.40;;;4.63;;
572;SDS011;271;51.114;13.780;2023-07-09T17:16:09;16.60;;;4.60;;
572;SDS011;271;51.114;13.780;2023-07-09T17:18:57;16.77;;;4.93;;
572;SDS011;271;51.114;13.780;2023-07-09T17:22:13;15.97;;;4.70;;
572;SDS011;271;51.114;13.780;2023-07-09T17:25:12;17.50;;;5.90;;
572;SDS011;271;51.114;13.780;2023-07-09T17:28:27;16.67;;;5.67;;
572;SDS011;271;51.114;13.780;2023-07-09T17:31:17;17.30;;;5.47;;
572;SDS011;271;51.114;13.780;2023-07-09T17:34:06;18.13;;;5.50;;
572;SDS011;271;51.114;13.780;2023-07-09T17:36:54;17.57;;;6.00;;
572;SDS011;271;51.114;13.780;2023-07-09T17:39:43;17.57;;;5.03;;
572;SDS011;271;51.114;13.780;2023-07-09T17:42:31;17.60;;;5.87;;
572;SDS011;271;51.114;13.780;2023-07-09T17:45:20;18.13;;;5.47;;
572;SDS011;271;51.114;13.780;2023-07-09T17:48:15;16.70;;;6.07;;
572;SDS011;271;51.114;13.780;2023-07-09T17:51:05;16.70;;;5.00;;
572;SDS011;271;51.114;13.780;2023-07-09T17:54:19;18.57;;;4.87;;
572;SDS011;271;51.114;13.780;2023-07-09T17:57:12;16.40;;;5.03;;
572;SDS011;271;51.114;13.780;2023-07-09T18:00:03;17.50;;;5.33;;